| time (UTC) | temp F | wind direction | speed MPH | gust MPH | rain 1hr in | rain 24hr in | rain mn in | humidity % | barometer mb |
| 20260509164704 | 63 | 194 | 4.0 | 10.0 | 0.00 | 0.00 | 0.00 | 36 | 1009.2 |
| 20260509164204 | 63 | 199 | 3.0 | 15.0 | 0.00 | 0.00 | 0.00 | 34 | 1009.2 |
| 20260509162704 | 63 | 243 | 3.0 | 7.0 | 0.00 | 0.00 | 0.00 | 36 | 1009.5 |
| 20260509162205 | 63 | 178 | 4.0 | 9.0 | 0.00 | 0.00 | 0.00 | 34 | 1009.6 |
| 20260509160704 | 62 | 165 | 5.0 | 9.0 | 0.00 | 0.00 | 0.00 | 35 | 1009.7 |
| 20260509160205 | 62 | 169 | 5.0 | 9.0 | 0.00 | 0.00 | 0.00 | 36 | 1009.9 |
| 20260509154704 | 62 | 182 | 5.0 | 9.0 | 0.00 | 0.00 | 0.00 | 37 | 1010.1 |
| 20260509154204 | 61 | 219 | 3.0 | 12.0 | 0.00 | 0.00 | 0.00 | 38 | 1010.1 |
| 20260509152704 | 61 | 154 | 5.0 | 10.0 | 0.00 | 0.00 | 0.00 | 39 | 1010.3 |
| 20260509152204 | 61 | 168 | 5.0 | 12.0 | 0.00 | 0.00 | 0.00 | 36 | 1010.2 |
| 20260509150704 | 60 | 158 | 5.0 | 10.0 | 0.00 | 0.00 | 0.00 | 37 | 1010.3 |
| 20260509150204 | 60 | 160 | 5.0 | 13.0 | 0.00 | 0.00 | 0.00 | 39 | 1010.3 |
| 20260509144704 | 59 | 139 | 3.0 | 9.0 | 0.00 | 0.00 | 0.00 | 42 | 1010.4 |
| 20260509144204 | 59 | 121 | 5.0 | 12.0 | 0.00 | 0.00 | 0.00 | 40 | 1010.4 |
| 20260509142704 | 58 | 196 | 3.0 | 8.0 | 0.00 | 0.00 | 0.00 | 42 | 1010.5 |
| 20260509142204 | 58 | 179 | 5.0 | 12.0 | 0.00 | 0.00 | 0.00 | 43 | 1010.5 |
| 20260509140706 | 57 | 166 | 6.0 | 12.0 | 0.00 | 0.00 | 0.00 | 43 | 1010.7 |
| 20260509140204 | 57 | 181 | 5.0 | 12.0 | 0.00 | 0.00 | 0.00 | 43 | 1010.7 |
| 20260509134704 | 55 | 185 | 4.0 | 8.0 | 0.00 | 0.00 | 0.00 | 47 | 1010.8 |
| 20260509134204 | 55 | 179 | 5.0 | 12.0 | 0.00 | 0.00 | 0.00 | 47 | 1010.9 |
| 20260509132704 | 55 | 175 | 5.0 | 14.0 | 0.00 | 0.00 | 0.00 | 47 | 1011.0 |
| 20260509132204 | 55 | 189 | 3.0 | 10.0 | 0.00 | 0.00 | 0.00 | 50 | 1011.0 |
| 20260509130204 | 52 | 185 | 5.0 | 12.0 | 0.00 | 0.00 | 0.00 | 51 | 1011.0 |
| 20260509124204 | 51 | 187 | 4.0 | 15.0 | 0.00 | 0.00 | 0.00 | 54 | 1011.1 |
| 20260509122204 | 49 | 172 | 5.0 | 12.0 | 0.00 | 0.00 | 0.00 | 56 | 1011.2 |
| 20260509120704 | 47 | 171 | 5.0 | 8.0 | 0.00 | 0.00 | 0.00 | 61 | 1011.2 |
| 20260509120204 | 46 | 170 | 3.0 | 8.0 | 0.00 | 0.00 | 0.00 | 62 | 1011.2 |
| 20260509114704 | 45 | 165 | 3.0 | 9.0 | 0.00 | 0.00 | 0.00 | 63 | 1011.2 |
| 20260509114204 | 45 | 155 | 4.0 | 7.0 | 0.00 | 0.00 | 0.00 | 64 | 1011.2 |
| 20260509112704 | 43 | 167 | 2.0 | 3.0 | 0.00 | 0.00 | 0.00 | 68 | 1011.1 |
| 20260509112203 | 43 | 167 | 4.0 | 6.0 | 0.00 | 0.00 | 0.00 | 67 | 1011.2 |
| 20260509110704 | 42 | 168 | 3.0 | 5.0 | 0.00 | 0.00 | 0.00 | 70 | 1011.1 |
| 20260509110204 | 41 | 167 | 2.0 | 3.0 | 0.00 | 0.00 | 0.00 | 70 | 1011.1 |
| 20260509104704 | 41 | 167 | 2.0 | 3.0 | 0.00 | 0.00 | 0.00 | 72 | 1010.9 |
| 20260509104204 | 40 | 167 | 2.0 | 3.0 | 0.00 | 0.00 | 0.00 | 73 | 1010.9 |
| 20260509102204 | 39 | 167 | 1.0 | 3.0 | 0.00 | 0.00 | 0.00 | 76 | 1010.6 |
| 20260509100704 | 38 | 167 | 2.0 | 3.0 | 0.00 | 0.00 | 0.00 | 77 | 1010.6 |
| 20260509100204 | 38 | 167 | 1.0 | 3.0 | 0.00 | 0.00 | 0.00 | 77 | 1010.4 |
| 20260509094704 | 37 | 167 | 1.0 | 3.0 | 0.00 | 0.00 | 0.00 | 78 | 1010.2 |
| 20260509094204 | 37 | 167 | 1.0 | 3.0 | 0.00 | 0.00 | 0.00 | 78 | 1010.1 |
| 20260509092704 | 38 | 167 | 1.0 | 2.0 | 0.00 | 0.00 | 0.00 | 77 | 1010.1 |
| 20260509092204 | 38 | 167 | 1.0 | 2.0 | 0.00 | 0.00 | 0.00 | 77 | 1010.1 |
| 20260509090704 | 39 | 167 | 1.0 | 2.0 | 0.00 | 0.00 | 0.00 | 75 | 1010.2 |
| 20260509090204 | 39 | 167 | 1.0 | 3.0 | 0.00 | 0.00 | 0.00 | 74 | 1010.2 |
| 20260509084704 | 40 | 167 | 1.0 | 3.0 | 0.00 | 0.00 | 0.00 | 74 | 1010.2 |
| 20260509084204 | 40 | 167 | 1.0 | 3.0 | 0.00 | 0.00 | 0.00 | 74 | 1010.2 |
| 20260509082704 | 41 | 167 | 2.0 | 3.0 | 0.00 | 0.00 | 0.00 | 73 | 1010.3 |
| 20260509082204 | 41 | 167 | 1.0 | 3.0 | 0.00 | 0.00 | 0.00 | 73 | 1010.3 |
| 20260509080704 | 41 | 167 | 2.0 | 3.0 | 0.00 | 0.00 | 0.00 | 72 | 1010.3 |
| 20260509080204 | 41 | 167 | 2.0 | 3.0 | 0.00 | 0.00 | 0.00 | 72 | 1010.3 |
| 20260509074205 | 42 | 168 | 2.0 | 3.0 | 0.00 | 0.00 | 0.00 | 72 | 1010.2 |
| 20260509072705 | 42 | 165 | 2.0 | 3.0 | 0.00 | 0.00 | 0.00 | 71 | 1010.2 |
| 20260509072205 | 41 | 167 | 2.0 | 5.0 | 0.00 | 0.00 | 0.00 | 72 | 1010.2 |
| 20260509070705 | 41 | 167 | 3.0 | 5.0 | 0.00 | 0.00 | 0.00 | 74 | 1010.1 |
| 20260509070205 | 41 | 170 | 2.0 | 5.0 | 0.00 | 0.00 | 0.00 | 74 | 1010.0 |
| 20260509064705 | 40 | 170 | 2.0 | 3.0 | 0.00 | 0.00 | 0.00 | 75 | 1010.0 |
| 20260509064205 | 40 | 170 | 2.0 | 3.0 | 0.00 | 0.00 | 0.00 | 76 | 1010.0 |
| 20260509062705 | 39 | 171 | 1.0 | 2.0 | 0.00 | 0.00 | 0.00 | 78 | 1009.9 |
| 20260509062205 | 39 | 171 | 1.0 | 3.0 | 0.00 | 0.00 | 0.00 | 77 | 1010.0 |
| 20260509060705 | 39 | 171 | 1.0 | 2.0 | 0.00 | 0.00 | 0.00 | 78 | 1010.0 |
| 20260509060205 | 39 | 171 | 1.0 | 2.0 | 0.00 | 0.00 | 0.00 | 77 | 1010.0 |
| 20260509054705 | 40 | 171 | 1.0 | 2.0 | 0.00 | 0.00 | 0.00 | 77 | 1010.1 |
| 20260509054205 | 40 | 171 | 1.0 | 2.0 | 0.00 | 0.00 | 0.00 | 77 | 1010.1 |
| 20260509052705 | 40 | 171 | 1.0 | 2.0 | 0.00 | 0.00 | 0.00 | 76 | 1010.1 |
| 20260509052205 | 40 | 171 | 1.0 | 2.0 | 0.00 | 0.00 | 0.00 | 76 | 1010.1 |
| 20260509050705 | 41 | 171 | 1.0 | 2.0 | 0.00 | 0.00 | 0.00 | 75 | 1010.1 |
| 20260509050205 | 41 | 171 | 1.0 | 3.0 | 0.00 | 0.00 | 0.00 | 75 | 1010.1 |
| 20260509044705 | 41 | 171 | 1.0 | 3.0 | 0.00 | 0.00 | 0.00 | 75 | 1010.0 |
| 20260509044204 | 41 | 171 | 1.0 | 3.0 | 0.00 | 0.00 | 0.00 | 75 | 1010.1 |
| 20260509042704 | 40 | 171 | 1.0 | 3.0 | 0.00 | 0.00 | 0.00 | 76 | 1010.0 |
| 20260509042205 | 40 | 171 | 2.0 | 3.0 | 0.00 | 0.00 | 0.00 | 76 | 1010.0 |
| 20260509040704 | 40 | 171 | 1.0 | 2.0 | 0.00 | 0.00 | 0.00 | 77 | 1009.9 |
| 20260509040204 | 40 | 171 | 1.0 | 2.0 | 0.00 | 0.00 | 0.00 | 77 | 1009.8 |
| 20260509034705 | 40 | 171 | 1.0 | 1.0 | 0.00 | 0.00 | 0.00 | 75 | 1009.7 |
| 20260509034205 | 41 | 171 | 1.0 | 3.0 | 0.00 | 0.00 | 0.00 | 74 | 1009.7 |
| 20260509032705 | 41 | 171 | 2.0 | 3.0 | 0.00 | 0.00 | 0.00 | 73 | 1009.7 |
| 20260509032205 | 42 | 171 | 1.0 | 3.0 | 0.00 | 0.00 | 0.00 | 72 | 1009.6 |
| 20260509030708 | 42 | 171 | 1.0 | 3.0 | 0.00 | 0.00 | 0.00 | 71 | 1009.6 |
| 20260509030205 | 43 | 171 | 2.0 | 3.0 | 0.00 | 0.00 | 0.00 | 71 | 1009.6 |
| 20260509024705 | 43 | 171 | 2.0 | 3.0 | 0.00 | 0.00 | 0.00 | 69 | 1009.6 |
| 20260509024205 | 44 | 171 | 2.0 | 6.0 | 0.00 | 0.00 | 0.00 | 69 | 1009.6 |
| 20260509022705 | 44 | 173 | 2.0 | 3.0 | 0.00 | 0.00 | 0.00 | 68 | 1009.5 |
| 20260509022205 | 44 | 173 | 2.0 | 5.0 | 0.00 | 0.00 | 0.00 | 68 | 1009.6 |
| 20260509020704 | 45 | 175 | 3.0 | 6.0 | 0.00 | 0.00 | 0.00 | 67 | 1009.5 |
| 20260509020204 | 45 | 176 | 2.0 | 3.0 | 0.00 | 0.00 | 0.00 | 68 | 1009.5 |
| 20260509014704 | 45 | 175 | 2.0 | 5.0 | 0.00 | 0.00 | 0.00 | 68 | 1009.4 |
| 20260509014205 | 45 | 180 | 2.0 | 5.0 | 0.00 | 0.00 | 0.00 | 68 | 1009.3 |
| 20260509012704 | 45 | 180 | 1.0 | 3.0 | 0.00 | 0.00 | 0.00 | 68 | 1009.2 |
| 20260509012205 | 45 | 180 | 1.0 | 3.0 | 0.00 | 0.00 | 0.00 | 67 | 1009.2 |
| 20260509010705 | 46 | 180 | 2.0 | 3.0 | 0.00 | 0.00 | 0.00 | 66 | 1009.0 |
| 20260509010205 | 46 | 180 | 2.0 | 5.0 | 0.00 | 0.00 | 0.00 | 65 | 1009.0 |
| 20260509004704 | 46 | 186 | 2.0 | 3.0 | 0.00 | 0.00 | 0.00 | 64 | 1008.8 |
| 20260509004204 | 47 | 186 | 2.0 | 3.0 | 0.00 | 0.00 | 0.00 | 63 | 1008.7 |
| 20260509002705 | 47 | 186 | 2.0 | 3.0 | 0.00 | 0.00 | 0.00 | 63 | 1008.5 |
| 20260509002205 | 47 | 187 | 2.0 | 6.0 | 0.00 | 0.00 | 0.00 | 63 | 1008.5 |
| 20260509000704 | 48 | 192 | 2.0 | 3.0 | 0.00 | 0.00 | 0.00 | 62 | 1008.3 |
| 20260509000204 | 48 | 193 | 2.0 | 3.0 | 0.00 | 0.00 | 0.00 | 61 | 1008.2 |
| 20260508234705 | 48 | 194 | 1.0 | 3.0 | 0.00 | 0.00 | 0.00 | 59 | 1008.2 |
| 20260508234205 | 48 | 194 | 1.0 | 5.0 | 0.00 | 0.00 | 0.00 | 59 | 1008.2 |
| 20260508232705 | 49 | 219 | 3.0 | 6.0 | 0.00 | 0.00 | 0.00 | 58 | 1008.1 |
| 20260508232204 | 49 | 219 | 4.0 | 10.0 | 0.00 | 0.00 | 0.00 | 59 | 1008.1 |
| 20260508230704 | 50 | 169 | 3.0 | 12.0 | 0.00 | 0.00 | 0.00 | 57 | 1008.2 |
| 20260508230204 | 50 | 198 | 3.0 | 9.0 | 0.00 | 0.00 | 0.00 | 56 | 1008.2 |
| 20260508224705 | 50 | 190 | 4.0 | 8.0 | 0.00 | 0.00 | 0.00 | 55 | 1008.1 |
| 20260508224204 | 50 | 284 | 3.0 | 9.0 | 0.00 | 0.00 | 0.00 | 53 | 1008.0 |
| 20260508222705 | 51 | 243 | 5.0 | 8.0 | 0.00 | 0.00 | 0.00 | 52 | 1008.0 |
| 20260508222205 | 51 | 270 | 3.0 | 9.0 | 0.00 | 0.00 | 0.00 | 53 | 1007.9 |
| 20260508220704 | 52 | 202 | 4.0 | 8.0 | 0.00 | 0.00 | 0.00 | 53 | 1007.9 |
| 20260508220204 | 52 | 202 | 3.0 | 8.0 | 0.00 | 0.00 | 0.00 | 52 | 1007.9 |
| 20260508214704 | 51 | 244 | 3.0 | 6.0 | 0.00 | 0.00 | 0.00 | 50 | 1007.7 |
| 20260508214205 | 51 | 219 | 3.0 | 8.0 | 0.00 | 0.00 | 0.00 | 51 | 1007.7 |
| 20260508212705 | 51 | 309 | 4.0 | 7.0 | 0.00 | 0.00 | 0.00 | 50 | 1007.7 |
| 20260508212205 | 51 | 221 | 3.0 | 7.0 | 0.00 | 0.00 | 0.00 | 50 | 1007.6 |
| 20260508210704 | 51 | 253 | 3.0 | 6.0 | 0.00 | 0.00 | 0.00 | 50 | 1007.6 |
| 20260508210204 | 51 | 275 | 4.0 | 9.0 | 0.00 | 0.00 | 0.00 | 50 | 1007.7 |
| 20260508204704 | 52 | 280 | 5.0 | 12.0 | 0.00 | 0.00 | 0.00 | 49 | 1007.5 |
| 20260508204205 | 52 | 289 | 5.0 | 13.0 | 0.00 | 0.00 | 0.00 | 50 | 1007.4 |
| 20260508202704 | 52 | 265 | 4.0 | 8.0 | 0.00 | 0.00 | 0.00 | 51 | 1007.3 |
| 20260508202204 | 51 | 218 | 4.0 | 8.0 | 0.00 | 0.00 | 0.00 | 52 | 1007.3 |
| 20260508200704 | 51 | 261 | 3.0 | 5.0 | 0.00 | 0.00 | 0.00 | 52 | 1007.3 |
| 20260508200205 | 51 | 185 | 5.0 | 7.0 | 0.00 | 0.00 | 0.00 | 52 | 1007.4 |
| 20260508194705 | 51 | 291 | 5.0 | 10.0 | 0.00 | 0.00 | 0.00 | 53 | 1007.5 |
| 20260508194205 | 51 | 249 | 4.0 | 15.0 | 0.00 | 0.00 | 0.00 | 55 | 1007.5 |
| 20260508192704 | 50 | 229 | 4.0 | 7.0 | 0.00 | 0.00 | 0.00 | 52 | 1007.5 |
| 20260508192204 | 50 | 252 | 6.0 | 14.0 | 0.00 | 0.00 | 0.00 | 51 | 1007.5 |
| 20260508190704 | 50 | 282 | 4.0 | 7.0 | 0.00 | 0.00 | 0.00 | 53 | 1007.5 |
| 20260508190204 | 50 | 289 | 5.0 | 12.0 | 0.00 | 0.00 | 0.00 | 53 | 1007.5 |
| 20260508184705 | 49 | 303 | 6.0 | 12.0 | 0.00 | 0.00 | 0.00 | 52 | 1007.6 |
| 20260508184204 | 49 | 286 | 6.0 | 15.0 | 0.00 | 0.00 | 0.00 | 52 | 1007.6 |
| 20260508182704 | 50 | 218 | 6.0 | 12.0 | 0.00 | 0.00 | 0.00 | 52 | 1007.5 |
| 20260508182204 | 50 | 277 | 6.0 | 13.0 | 0.00 | 0.00 | 0.00 | 52 | 1007.5 |
| 20260508180704 | 50 | 286 | 6.0 | 14.0 | 0.00 | 0.00 | 0.00 | 54 | 1007.5 |
| 20260508180204 | 49 | 248 | 4.0 | 10.0 | 0.00 | 0.00 | 0.00 | 56 | 1007.5 |
| 20260508174704 | 49 | 278 | 4.0 | 8.0 | 0.00 | 0.00 | 0.00 | 58 | 1007.5 |
| 20260508174205 | 49 | 232 | 3.0 | 14.0 | 0.00 | 0.00 | 0.00 | 57 | 1007.5 |
| 20260508172704 | 49 | 252 | 4.0 | 8.0 | 0.00 | 0.00 | 0.00 | 56 | 1007.5 |
| 20260508172204 | 49 | 297 | 5.0 | 9.0 | 0.00 | 0.00 | 0.00 | 57 | 1007.5 |
| 20260508170704 | 50 | 196 | 4.0 | 8.0 | 0.00 | 0.00 | 0.00 | 57 | 1007.5 |
| 20260508170205 | 50 | 192 | 3.0 | 9.0 | 0.00 | 0.00 | 0.00 | 57 | 1007.5 |